createdAt,value
2022-08-27T12:49:35.942Z,24.61
2022-08-27T12:50:11.937Z,24.56
2022-08-27T12:51:11.086Z,24.49
2022-08-27T12:52:11.083Z,24.50
2022-08-27T12:53:11.110Z,24.54
2022-08-27T12:54:11.204Z,24.71
2022-08-27T12:55:11.218Z,24.88
2022-08-27T12:56:11.270Z,24.97
2022-08-27T12:57:11.340Z,25.05
2022-08-27T12:58:15.533Z,25.01
2022-08-27T12:59:11.723Z,25.06
2022-08-27T13:00:11.511Z,24.69
2022-08-27T13:01:11.647Z,24.59
2022-08-27T13:02:11.665Z,24.53
2022-08-27T13:03:12.485Z,24.54
2022-08-27T13:04:11.728Z,24.56
2022-08-27T13:05:11.771Z,24.63
2022-08-27T13:06:11.851Z,24.77
2022-08-27T13:07:11.891Z,24.90
2022-08-27T13:08:12.207Z,25.10
2022-08-27T13:09:11.992Z,25.07
2022-08-27T13:10:12.052Z,24.82
2022-08-27T13:11:14.350Z,24.80
2022-08-27T14:21:20.546Z,27.36
2022-08-27T14:21:53.549Z,28.10
2022-08-27T14:22:53.595Z,28.70
2022-08-27T14:23:53.689Z,28.85
2022-08-27T14:24:53.710Z,28.75
2022-08-27T14:25:53.771Z,28.87
2022-08-27T14:26:53.829Z,28.59
2022-08-27T14:27:54.484Z,28.10
2022-08-27T14:28:53.987Z,27.51
2022-08-27T14:29:54.033Z,26.61
2022-08-27T14:30:54.181Z,25.99
2022-08-27T14:31:54.132Z,25.52
2022-08-27T14:32:56.258Z,25.02
2022-08-27T14:33:54.247Z,24.80
2022-08-27T14:34:54.361Z,24.52
2022-08-27T14:58:54.641Z,25.86
2022-08-27T14:59:27.635Z,25.79
2022-08-27T15:00:27.696Z,25.65
2022-08-27T15:01:27.837Z,25.54
2022-08-27T15:02:27.812Z,25.83
2022-08-27T15:03:27.871Z,26.01
2022-08-27T15:04:28.036Z,26.17
2022-08-27T15:05:28.053Z,26.08
2022-08-27T15:06:28.043Z,26.31
2022-08-27T15:07:28.099Z,26.36
2022-08-27T15:08:29.444Z,26.54
2022-08-27T21:07:26.644Z,19.66
2022-08-27T21:07:59.661Z,19.65
2022-08-27T21:08:59.685Z,19.66
2022-08-27T21:09:59.746Z,19.60
2022-08-27T21:10:59.784Z,19.61
2022-08-27T21:11:59.961Z,19.61
2022-08-27T21:13:02.306Z,19.73
2022-08-27T21:13:59.934Z,19.69
2022-08-27T21:14:59.986Z,19.73
2022-08-27T21:16:00.147Z,19.73
2022-08-27T21:17:00.125Z,19.68
2022-08-27T21:18:00.145Z,19.69
2022-08-27T21:19:00.207Z,19.75
2022-08-27T21:20:00.264Z,19.65
2022-08-27T21:21:00.363Z,19.72
2022-08-27T21:22:05.602Z,19.75
2022-08-27T21:23:00.414Z,19.78
2022-08-27T21:24:00.463Z,19.76
2022-08-27T21:25:00.497Z,19.78
2022-08-27T21:26:00.545Z,19.87
2022-08-27T21:27:00.620Z,19.80
2022-08-27T21:28:00.649Z,19.84
2022-08-27T21:29:00.713Z,19.84
2022-08-27T21:30:00.910Z,19.88
2022-08-27T21:31:00.799Z,19.90
2022-08-27T21:32:00.855Z,19.86
2022-08-27T21:34:28.008Z,19.87
2022-08-27T21:34:37.596Z,19.86
2022-08-27T21:35:28.825Z,19.83
2022-08-27T21:36:28.873Z,19.87
2022-08-27T21:37:28.921Z,19.83
2022-08-27T22:20:36.045Z,19.51
2022-08-27T22:21:36.055Z,19.54
2022-08-27T22:22:36.142Z,19.54
2022-08-27T22:23:36.180Z,19.53
2022-08-27T22:24:36.215Z,19.48
2022-08-27T22:25:36.257Z,19.47
2022-08-27T22:26:36.318Z,19.47
2022-08-27T22:27:36.380Z,19.46
2022-08-27T22:28:36.407Z,19.54
2022-08-27T22:29:36.462Z,19.51
2022-08-27T22:30:36.633Z,19.57
2022-08-27T22:31:36.598Z,19.50
2022-08-27T22:32:36.638Z,19.61
2022-08-27T22:33:36.660Z,19.42
2022-08-27T22:34:36.711Z,19.51
2022-08-27T22:35:36.767Z,19.53
2022-08-27T22:36:36.813Z,19.43
2022-08-27T22:37:36.887Z,19.42
2022-08-27T22:38:36.920Z,19.38
2022-08-27T22:39:36.961Z,19.38
2022-08-27T22:40:37.089Z,19.42
2022-08-27T22:41:37.066Z,19.40
2022-08-27T22:42:37.143Z,19.39
2022-08-27T22:43:37.173Z,19.40
2022-08-27T22:44:37.221Z,19.36
2022-08-27T22:45:37.274Z,19.32
2022-08-27T22:46:37.357Z,19.42
2022-08-27T22:47:37.443Z,19.47
2022-08-27T22:48:37.429Z,19.35
2022-08-27T22:49:37.474Z,19.43
2022-08-27T22:50:37.526Z,19.43
2022-08-27T22:51:37.579Z,19.32
2022-08-27T22:52:37.652Z,19.36
2022-08-27T22:53:39.344Z,19.51
2022-08-27T22:54:37.730Z,19.32
2022-08-27T22:55:37.785Z,19.46
2022-08-27T22:56:37.832Z,19.39
2022-08-27T22:57:37.907Z,19.43
2022-08-27T22:58:37.939Z,19.33
2022-08-27T22:59:38.034Z,19.46
2022-08-27T23:00:38.059Z,19.33
2022-08-27T23:01:38.099Z,19.46
2022-08-27T23:02:38.138Z,19.47
2022-08-27T23:03:38.219Z,19.36
2022-08-27T23:04:53.957Z,19.48
2022-08-27T23:05:41.620Z,19.47
2022-08-27T23:06:38.363Z,19.47
2022-08-27T23:07:38.394Z,19.40
2022-08-27T23:08:38.446Z,19.43
2022-08-27T23:09:38.573Z,19.35
2022-08-27T23:10:38.551Z,19.48
2022-08-27T23:11:38.597Z,19.32
2022-08-27T23:12:39.205Z,19.39
2022-08-27T23:13:38.734Z,19.38
2022-08-27T23:14:38.755Z,19.51
2022-08-27T23:15:38.891Z,19.43
2022-08-27T23:16:38.857Z,19.42
2022-08-27T23:17:38.910Z,19.40
2022-08-27T23:18:38.983Z,19.38
2022-08-27T23:19:39.010Z,19.33
2022-08-27T23:20:39.104Z,19.42
2022-08-27T23:21:39.113Z,19.39
2022-08-27T23:22:39.166Z,19.36
2022-08-27T23:23:39.217Z,19.35
2022-08-27T23:24:39.268Z,19.29
2022-08-27T23:25:39.340Z,19.18
2022-08-27T23:26:39.366Z,19.18
2022-08-27T23:27:39.417Z,19.25
2022-08-27T23:28:39.470Z,19.23
2022-08-27T23:29:39.558Z,19.23
2022-08-27T23:30:39.569Z,19.21
2022-08-27T23:31:39.696Z,19.21
2022-08-27T23:32:39.677Z,19.17
2022-08-27T23:33:39.732Z,19.18
2022-08-27T23:34:39.786Z,19.05
2022-08-27T23:35:39.835Z,19.08
2022-08-27T23:36:39.903Z,19.14
2022-08-27T23:37:39.931Z,19.13
2022-08-27T23:38:39.978Z,19.15
2022-08-27T23:39:40.037Z,19.11
2022-08-27T23:40:40.154Z,19.08
2022-08-27T23:41:40.157Z,19.08
2022-08-27T23:42:40.186Z,19.11
2022-08-27T23:43:40.268Z,19.02
2022-08-27T23:44:40.286Z,18.95
2022-08-27T23:45:40.581Z,18.97
2022-08-27T23:46:40.437Z,18.90
2022-08-27T23:47:40.442Z,18.94
2022-08-27T23:48:40.520Z,18.94
2022-08-27T23:49:40.548Z,18.97
2022-08-27T23:50:40.590Z,18.95
2022-08-27T23:51:40.648Z,18.98
2022-08-27T23:52:40.695Z,18.84
2022-08-27T23:53:40.770Z,18.91
2022-08-27T23:54:40.799Z,18.84
2022-08-27T23:55:40.854Z,18.82
2022-08-27T23:56:40.896Z,18.80
2022-08-27T23:57:40.954Z,18.84
2022-08-27T23:58:41.021Z,18.91
2022-08-27T23:59:41.054Z,18.86
